Flight Track Log - Related Links

Times and Time Zones

All times are in EDT time to prevent confusion due to time zone crossing. See the EJA922 flight status page for this flight to view local times or setup timezone preferences in your user account.

Time Position Orientation Groundspeed Altitude Reporting Facility
EDT Latitude Longitude Course Direction KTS MPH feet Rate Location/Type
Wed 12:05:42 PM 42.4667 -71.3167 309° West 196 226 1,000  Level KA90
Wed 12:07:06 PM 42.5167 -71.4000 309° West 271 312 3,900 2,492 Climbing KA90
Wed 12:08:45 PM 42.6347 -71.3281 24° Northeast 335 386 8,600 2,642 Climbing Boston Center
Wed 12:09:45 PM 42.7050 -71.2844 25° Northeast 312 359 10,900 1,800 Climbing Boston Center
Wed 12:10:45 PM 42.7828 -71.3425 331° Northwest 277 319 12,200 1,600 Climbing Boston Center
Wed 12:11:45 PM 42.8025 -71.4667 282° West 300 345 14,100 2,050 Climbing Boston Center
Wed 12:12:45 PM 42.8119 -71.6022 275° West 345 397 16,300 1,900 Climbing Boston Center
Wed 12:13:45 PM 42.8256 -71.7381 278° West 363 418 17,900 1,700 Climbing Boston Center
Wed 12:14:45 PM 42.8367 -71.8625 277° West 372 428 19,700 1,600 Climbing Boston Center
Wed 12:15:45 PM 42.8519 -72.0039 278° West 377 434 21,100 1,500 Climbing Boston Center
Wed 12:16:45 PM 42.8669 -72.1483 278° West 377 434 22,700 1,400 Climbing Boston Center
Wed 12:17:45 PM 42.8839 -72.2928 279° West 383 441 23,900 1,450 Climbing Boston Center
Wed 12:18:45 PM 42.9006 -72.4428 279° West 395 455 25,600 1,350 Climbing Boston Center
Wed 12:19:45 PM 42.9172 -72.5875 279° West 395 455 26,600 1,100 Climbing Boston Center
Wed 12:20:45 PM 42.9272 -72.7406 275° West 395 455 27,800 1,150 Climbing Boston Center
Wed 12:21:45 PM 42.9433 -72.8939 278° West 407 468 28,900 1,100 Climbing Boston Center
Wed 12:22:45 PM 42.9572 -73.0472 277° West 412 474 30,000 1,000 Climbing Boston Center
Wed 12:23:45 PM 42.9708 -73.2033 277° West 412 474 30,900 1,300 Climbing Boston Center
Wed 12:24:45 PM 42.9844 -73.3625 277° West 417 480 32,600 2,000 Climbing Boston Center
Wed 12:25:45 PM 42.9936 -73.5103 275° West 412 474 34,900 1,750 Climbing Boston Center
Wed 12:26:45 PM 43.0108 -73.6581 279° West 405 466 36,100 1,250 Climbing Boston Center
Wed 12:27:45 PM 43.0217 -73.8117 276° West 405 466 37,400 1,136 Climbing Boston Center
Wed 12:28:57 PM 43.0364 -73.9656 278° West 405 466 38,600 1,000 Climbing Boston Center
Wed 12:29:57 PM 43.0522 -74.1533 277° West 410 472 39,600 700 Climbing Boston Center
Wed 12:30:57 PM 43.0644 -74.3100 276° West 410 472 40,000 200 Climbing Boston Center
Wed 12:31:57 PM 43.0783 -74.4753 277° West 421 484 40,000  Level Boston Center
Wed 12:32:57 PM 43.0917 -74.6464 276° West 441 507 40,000 -50 Level Boston Center
Wed 12:33:57 PM 43.1072 -74.8178 277° West 454 522 39,900  Descending Boston Center
Wed 12:34:57 PM 43.1197 -75.0089 275° West 459 528 40,000 50 Climbing Boston Center
Wed 12:35:57 PM 43.1322 -75.1856 276° West 464 534 40,000  Level Boston Center
Wed 12:36:57 PM 43.1467 -75.3628 276° West 464 534 40,000  Level Boston Center
Wed 12:37:57 PM 43.1606 -75.5400 276° West 469 540 40,000  Level Boston Center
Wed 12:38:57 PM 43.1744 -75.7172 276° West 469 540 40,000  Level Boston Center
Wed 12:39:57 PM 43.1878 -75.8975 276° West 469 540 40,000  Level Boston Center
Wed 12:41:44 PM 43.2069 -76.2078 275° West 482 555 40,000  Level Cleveland Center
Wed 12:42:44 PM 43.2200 -76.3892 276° West 482 555 40,000  Level Cleveland Center
Wed 12:43:44 PM 43.2325 -76.5681 276° West 476 548 40,000  Level Cleveland Center
Wed 12:44:44 PM 43.2428 -76.7442 275° West 476 548 40,000  Level Cleveland Center
Wed 12:45:44 PM 43.2528 -76.9231 274° West 476 548 40,000  Level Cleveland Center
Wed 12:46:44 PM 43.2619 -77.0850 274° West 476 548 40,000  Level Cleveland Center
Wed 12:47:44 PM 43.2711 -77.2614 274° West 476 548 40,000  Level Cleveland Center
Wed 12:48:44 PM 43.2803 -77.4406 274° West 476 548 40,000  Level Cleveland Center
Wed 12:49:44 PM 43.2914 -77.6197 275° West 476 548 40,000  Level Cleveland Center
Wed 12:50:44 PM 43.3019 -77.7989 275° West 476 548 40,000  Level Cleveland Center
Wed 12:51:44 PM 43.3103 -77.9783 274° West 476 548 40,000  Level Cleveland Center
Wed 12:52:44 PM 43.3206 -78.1550 275° West 476 548 40,000  Level Cleveland Center
Wed 12:53:44 PM 43.3283 -78.3317 274° West 476 548 40,000  Level Cleveland Center
Wed 12:54:44 PM 43.3378 -78.5111 274° West 476 548 40,000  Level Cleveland Center
Wed 12:55:44 PM 43.3450 -78.6878 273° West 476 548 40,000  Level Cleveland Center
Wed 12:56:44 PM 43.3519 -78.8731 273° West 476 548 40,000  Level Cleveland Center
Wed 12:58:13 PM 43.3500 -79.1333 270° West 470 541 40,000  Level Toronto Center
Wed 12:59:13 PM 43.3667 -79.3167 277° West 470 541 40,000  Level Toronto Center
Wed 01:00:13 PM 43.3667 -79.5000 270° West 470 541 40,000  Level Toronto Center
Wed 01:01:13 PM 43.3667 -79.6500 270° West 470 541 40,000  Level Toronto Center
Wed 01:02:13 PM 43.3833 -79.8667 276° West 480 552 40,000  Level Toronto Center
Wed 01:03:13 PM 43.3833 -80.0167 270° West 470 541 40,000  Level Toronto Center
Wed 01:04:13 PM 43.4000 -80.2333 276° West 470 541 40,000  Level Toronto Center
Wed 01:05:13 PM 43.4000 -80.3833 270° West 470 541 40,000  Level Toronto Center
Wed 01:06:13 PM 43.4000 -80.5667 270° West 470 541 40,000  Level Toronto Center
Wed 01:07:13 PM 43.4167 -80.7500 277° West 470 541 40,000  Level Toronto Center
Wed 01:08:13 PM 43.4000 -80.9333 263° West 470 541 40,000  Level Toronto Center
Wed 01:09:13 PM 43.4000 -81.1167 270° West 470 541 40,000  Level Toronto Center
Wed 01:10:13 PM 43.4167 -81.3167 277° West 470 541 40,000  Level Toronto Center
Wed 01:11:13 PM 43.4167 -81.4667 270° West 470 541 40,000  Level Toronto Center
Wed 01:12:13 PM 43.4333 -81.6500 277° West 470 541 40,000  Level Toronto Center
Wed 01:13:13 PM 43.4333 -81.8333 270° West 470 541 40,000  Level Toronto Center
Wed 01:14:13 PM 43.4167 -82.0167 263° West 470 541 40,000  Level Toronto Center
Wed 01:15:08 PM 43.4450 -82.1958 282° West 480 552 40,000  Level Cleveland Center
Wed 01:16:08 PM 43.4469 -82.3589 271° West 480 552 40,000  Level Cleveland Center
Wed 01:17:08 PM 43.4481 -82.5389 271° West 475 547 40,000  Level Cleveland Center
Wed 01:18:08 PM 43.4492 -82.7164 271° West 475 547 40,000  Level Cleveland Center
Wed 01:19:08 PM 43.4519 -82.8936 271° West 475 547 40,000  Level Cleveland Center
Wed 01:20:08 PM 43.4525 -83.0711 270° West 475 547 40,000  Level Cleveland Center
Wed 01:21:08 PM 43.4528 -83.2483 270° West 475 547 40,000  Level Cleveland Center
Wed 01:22:08 PM 43.4528 -83.4258 270° West 475 547 40,000 170 Level Cleveland Center
Wed 01:22:54 PM 43.4531 -83.5700 270° West 464 534 40,300 722 Climbing Minneapolis Center
Wed 01:23:56 PM 43.4531 -83.7436 270° West 459 528 41,300 968 Climbing Minneapolis Center
Wed 01:24:58 PM 43.4533 -83.9125 270° West 447 514 42,300 823 Climbing Minneapolis Center
Wed 01:26:00 PM 43.4531 -84.0769 270° West 435 501 43,000 339 Climbing Minneapolis Center
Wed 01:27:02 PM 43.4525 -84.2778 270° West 438 504 43,000  Level Minneapolis Center
Wed 01:28:17 PM 43.4514 -84.4839 270° West 448 516 43,000  Level Minneapolis Center
Wed 01:29:19 PM 43.4506 -84.6586 270° West 455 524 43,000  Level Minneapolis Center
Wed 01:30:21 PM 43.4494 -84.8339 270° West 458 527 43,000  Level Minneapolis Center
Wed 01:31:08 PM 43.4486 -84.9758 270° West 461 531 43,000  Level Chicago Center
Wed 01:32:10 PM 43.4464 -85.1522 269° West 463 533 43,000  Level Chicago Center
Wed 01:33:12 PM 43.4442 -85.3278 269° West 463 533 43,000  Level Chicago Center
Wed 01:34:14 PM 43.4414 -85.5389 269° West 463 533 43,000  Level Chicago Center
Wed 01:35:16 PM 43.4378 -85.7153 268° West 464 534 43,000  Level Chicago Center
Wed 01:36:18 PM 43.4356 -85.8914 269° West 466 536 43,000  Level Chicago Center
Wed 01:37:21 PM 43.4322 -86.0678 269° West 468 539 43,000  Level Chicago Center
Wed 01:38:23 PM 43.4286 -86.2436 268° West 469 540 43,000  Level Chicago Center
Wed 01:39:25 PM 43.4233 -86.4572 268° West 472 543 43,000  Level Chicago Center
Wed 01:40:27 PM 43.4197 -86.6344 268° West 468 539 43,000  Level Chicago Center
Wed 01:41:29 PM 43.4153 -86.8133 268° West 470 541 43,000  Level Chicago Center
Wed 01:42:31 PM 43.4103 -86.9903 268° West 467 537 43,000  Level Chicago Center
Wed 01:43:33 PM 43.4042 -87.1692 267° West 468 539 43,000  Level Chicago Center
Wed 01:44:35 PM 43.3981 -87.3736 268° West 468 539 43,000  Level Chicago Center
Wed 01:45:37 PM 43.3914 -87.5494 267° West 461 531 43,000  Level Chicago Center
Wed 01:46:39 PM 43.3856 -87.7283 267° West 465 535 43,000  Level Chicago Center
Wed 01:47:42 PM 43.3778 -87.9361 267° West 465 535 43,000  Level Chicago Center
Wed 01:48:44 PM 43.3711 -88.1133 267° West 463 533 43,000  Level Chicago Center
Wed 01:49:46 PM 43.3636 -88.2917 267° West 460 529 43,000  Level Chicago Center
Wed 01:50:48 PM 43.3597 -88.4653 268° West 471 542 43,000  Level Chicago Center
Wed 01:51:50 PM 43.3483 -88.6578 265° West 465 535 43,000  Level Chicago Center
Wed 01:52:52 PM 43.3406 -88.8361 267° West 464 534 43,000  Level Chicago Center
Wed 01:53:54 PM 43.3331 -89.0131 267° West 464 534 43,000  Level Chicago Center
Wed 01:54:56 PM 43.3247 -89.1914 266° West 466 536 43,000  Level Chicago Center
Wed 01:55:58 PM 43.3156 -89.3969 267° West 463 533 43,000  Level Chicago Center
Wed 01:57:00 PM 43.3047 -89.5747 265° West 469 540 43,000  Level Chicago Center
Wed 01:58:02 PM 43.2950 -89.7525 266° West 466 536 43,000  Level Chicago Center
Wed 01:59:05 PM 43.2847 -89.9308 266° West 469 540 43,000  Level Chicago Center
Wed 02:00:07 PM 43.2744 -90.1108 266° West 472 543 43,000  Level Chicago Center
Wed 02:01:09 PM 43.2650 -90.2975 266° West 471 542 43,000  Level Chicago Center
Wed 02:02:11 PM 43.2542 -90.4747 265° West 472 543 43,000  Level Chicago Center
Wed 02:03:13 PM 43.2419 -90.6867 266° West 470 541 43,000  Level Chicago Center
Wed 02:04:15 PM 43.2306 -90.8633 265° West 470 541 43,000  Level Chicago Center
Wed 02:05:17 PM 43.2206 -91.0389 266° West 468 539 43,000  Level Chicago Center
Wed 02:06:19 PM 43.2097 -91.2144 265° West 470 541 43,000  Level Chicago Center
Wed 02:07:21 PM 43.1986 -91.3897 265° West 470 541 43,000  Level Chicago Center
Wed 02:08:23 PM 43.1842 -91.6028 265° West 475 547 43,000  Level Chicago Center
Wed 02:09:25 PM 43.1719 -91.7792 265° West 475 547 43,000  Level Chicago Center
Wed 02:10:27 PM 43.1592 -91.9547 264° West 474 545 43,000  Level Chicago Center
Wed 02:11:29 PM 43.1456 -92.1311 264° West 474 545 43,000  Level Chicago Center
Wed 02:12:32 PM 43.1297 -92.3417 264° West 470 541 43,000  Level Chicago Center
Wed 02:13:34 PM 43.1164 -92.5175 264° West 472 543 43,000  Level Chicago Center
Wed 02:14:36 PM 43.1031 -92.6933 264° West 469 540 43,000  Level Chicago Center
Wed 02:15:38 PM 43.0886 -92.8694 264° West 472 543 43,000  Level Chicago Center
Wed 02:16:40 PM 43.0700 -93.0803 263° West 470 541 43,000  Level Chicago Center
Wed 02:17:42 PM 43.0561 -93.2550 264° West 468 539 43,000  Level Chicago Center
Wed 02:18:44 PM 43.0417 -93.4317 264° West 471 542 43,000  Level Chicago Center
Wed 02:19:47 PM 43.0261 -93.6061 263° West 469 540 43,000  Level Chicago Center
Wed 02:20:48 PM 43.0122 -93.7819 264° West 470 541 43,000  Level Chicago Center
Wed 02:21:50 PM 42.9933 -93.9947 263° West 474 545 43,000  Level Chicago Center
Wed 02:22:53 PM 42.9756 -94.1731 262° West 476 548 43,000  Level Chicago Center
Wed 02:24:10 PM 42.9586 -94.3856 264° West 475 547 43,000  Level Minneapolis Center
Wed 02:25:12 PM 42.9378 -94.5989 262° West 478 550 43,000  Level Minneapolis Center
Wed 02:26:14 PM 42.9225 -94.7633 263° West 470 541 43,000  Level Minneapolis Center
Wed 02:27:16 PM 42.9056 -94.9400 263° West 470 541 43,000  Level Minneapolis Center
Wed 02:28:18 PM 42.8872 -95.1142 262° West 467 537 43,000  Level Minneapolis Center
Wed 02:29:20 PM 42.8667 -95.3222 262° West 462 532 43,000  Level Minneapolis Center
Wed 02:30:22 PM 42.8489 -95.4942 262° West 459 528 43,000  Level Minneapolis Center
Wed 02:31:24 PM 42.8300 -95.6697 262° West 464 534 43,000  Level Minneapolis Center
Wed 02:32:26 PM 42.8119 -95.8433 262° West 464 534 43,000  Level Minneapolis Center
Wed 02:33:28 PM 42.7928 -96.0172 262° West 464 534 43,000  Level Minneapolis Center
Wed 02:34:31 PM 42.7736 -96.1925 262° West 466 536 43,000  Level Minneapolis Center
Wed 02:35:33 PM 42.7506 -96.4044 262° West 471 542 43,000  Level Minneapolis Center
Wed 02:36:35 PM 42.7306 -96.5814 261° West 473 544 43,000  Level Minneapolis Center
Wed 02:37:37 PM 42.7106 -96.7558 261° West 469 540 43,000  Level Minneapolis Center
Wed 02:38:39 PM 42.6883 -96.9464 261° West 468 539 43,000  Level Minneapolis Center
Wed 02:39:41 PM 42.6681 -97.1181 261° West 465 535 43,000  Level Minneapolis Center
Wed 02:40:43 PM 42.6472 -97.2908 261° West 465 535 43,000  Level Minneapolis Center
Wed 02:41:45 PM 42.6269 -97.4608 261° West 459 528 43,000  Level Minneapolis Center
Wed 02:42:47 PM 42.6061 -97.6347 261° West 466 536 43,000  Level Minneapolis Center
Wed 02:43:49 PM 42.5847 -97.8061 260° West 464 534 43,000  Level Minneapolis Center
Wed 02:44:51 PM 42.5614 -97.9872 260° West 464 534 43,000  Level Minneapolis Center
Wed 02:45:53 PM 42.5356 -98.1933 260° West 463 533 43,000  Level Minneapolis Center
Wed 02:46:55 PM 42.5133 -98.3636 260° West 461 531 43,000  Level Minneapolis Center
Wed 02:47:58 PM 42.4914 -98.5336 260° West 460 529 43,000  Level Minneapolis Center
Wed 02:49:00 PM 42.4606 -98.7008 256° West 461 531 43,000  Level Minneapolis Center
Wed 02:50:02 PM 42.3928 -98.8533 239° Southwest 476 548 43,000  Level Minneapolis Center
Wed 02:51:04 PM 42.3214 -99.0028 237° Southwest 474 545 43,000  Level Minneapolis Center
Wed 02:52:06 PM 42.2364 -99.1817 237° Southwest 473 544 43,000  Level Minneapolis Center
Wed 02:53:08 PM 42.1633 -99.3308 237° Southwest 478 550 43,000  Level Minneapolis Center
Wed 02:53:52 PM 42.1203 -99.4206 237° Southwest 476 548 43,000  Level Denver Center
Wed 02:54:54 PM 42.0347 -99.5992 237° Southwest 476 548 43,000  Level Denver Center
Wed 02:55:56 PM 41.9636 -99.7422 236° Southwest 472 543 43,000  Level Denver Center
Wed 02:56:58 PM 41.8836 -99.9061 237° Southwest 472 543 43,000  Level Denver Center
Wed 02:58:00 PM 41.8164 -100.0475 237° Southwest 469 540 43,000  Level Denver Center
Wed 02:59:02 PM 41.7594 -100.1939 242° Southwest 465 535 43,000  Level Denver Center
Wed 03:00:04 PM 41.6917 -100.3619 242° Southwest 462 532 43,000  Level Denver Center
Wed 03:01:06 PM 41.6339 -100.5064 242° Southwest 462 532 43,000 -145 Level Denver Center
Wed 03:02:08 PM 41.5653 -100.6725 241° Southwest 461 531 42,700 -726 Descending Denver Center
Wed 03:03:10 PM 41.5075 -100.8147 242° Southwest 458 527 41,500 -1,306 Descending Denver Center
Wed 03:04:12 PM 41.4408 -100.9794 242° Southwest 457 526 40,000 -726 Descending Denver Center
Wed 03:05:14 PM 41.3814 -101.1244 241° Southwest 467 537 40,000  Level Denver Center
Wed 03:06:16 PM 41.3100 -101.2967 241° Southwest 477 549 40,000  Level Denver Center
Wed 03:07:18 PM 41.2492 -101.4422 241° Southwest 475 547 40,000  Level Denver Center
Wed 03:08:21 PM 41.1778 -101.6117 241° Southwest 473 544 40,000  Level Denver Center
Wed 03:09:23 PM 41.1169 -101.7544 241° Southwest 468 539 40,000  Level Denver Center
Wed 03:10:25 PM 41.0461 -101.9214 241° Southwest 469 540 40,000 -339 Level Denver Center
Wed 03:11:27 PM 40.9850 -102.0650 241° Southwest 469 540 39,300 -1,403 Descending Denver Center
Wed 03:12:29 PM 40.9153 -102.2342 241° Southwest 469 540 37,100 -1,935 Descending Denver Center
Wed 03:13:31 PM 40.8497 -102.3800 239° Southwest 481 554 35,300 -2,129 Descending Denver Center
Wed 03:14:33 PM 40.7747 -102.5539 240° Southwest 489 563 32,700 -1,984 Descending Denver Center
Wed 03:15:35 PM 40.7072 -102.7086 240° Southwest 505 581 31,200 -1,210 Descending Denver Center
Wed 03:16:37 PM 40.6375 -102.8700 240° Southwest 509 586 30,200 -581 Descending Denver Center
Wed 03:17:39 PM 40.5531 -103.0603 240° Southwest 504 580 30,000 -97 Descending Denver Center
Wed 03:18:41 PM 40.4842 -103.2178 240° Southwest 499 574 30,000 -48 Level Denver Center
Wed 03:19:43 PM 40.4139 -103.3742 239° Southwest 499 574 29,900 -1,210 Descending Denver Center
Wed 03:20:45 PM 40.3444 -103.5319 240° Southwest 501 577 27,500 -2,323 Descending Denver Center
Wed 03:21:47 PM 40.2797 -103.6739 239° Southwest 465 535 25,100 -2,323 Descending Denver Center
Wed 03:22:49 PM 40.2161 -103.8183 240° Southwest 391 450 22,700 -2,112 Descending Denver Center
Wed 03:23:52 PM 40.1686 -103.9214 239° Southwest 338 389 20,700 -1,824 Descending Denver Center
Wed 03:24:54 PM 40.1206 -104.0275 239° Southwest 316 364 18,900 -1,790 Descending Denver Center
Wed 03:25:56 PM 40.0711 -104.1333 239° Southwest 341 392 17,000 -968 Descending Denver Center
Wed 03:26:58 PM 40.0247 -104.2331 239° Southwest 323 372 16,900 -387 Descending Denver Center
Wed 03:28:00 PM 39.9728 -104.3431 238° Southwest 329 379 16,200 -1,113 Descending Denver Center
Wed 03:29:02 PM 39.9267 -104.4425 239° Southwest 322 371 14,600 -1,403 Descending Denver Center
Wed 03:30:04 PM 39.8772 -104.5422 237° Southwest 307 353 13,300 -1,306 Descending Denver Center
Wed 03:31:06 PM 39.8325 -104.6294 236° Southwest 287 330 11,900 -1,258 Descending Denver Center
Wed 03:32:08 PM 39.7956 -104.7019 236° Southwest 238 274 10,700 -1,065 Descending Denver Center
Wed 03:33:10 PM 39.7639 -104.7775 241° Southwest 215 247 9,700 -1,016 Descending Denver Center
Wed 03:34:12 PM 39.7286 -104.8447 236° Southwest 223 257 8,600 -1,139 Descending Denver Center
Wed 03:35:27 PM 39.6625 -104.8553 187° South 192 221 7,100 -1,007 Descending Denver Center
Wed 03:36:29 PM 39.6211 -104.8531 178° South 142 163 6,300 -629 Descending Denver Center
Wed 03:37:31 PM 39.5864 -104.8519 179° South 126 145 5,800 -484 Descending Denver Center
Wed 03:39:00 PM 39.5701 -104.8493 174° South  Level Estimated
Wed 03:46:00 PM 39.5701 -104.8493 174° South  Level Estimated
Wed 03:47:00 PM 39.5701 -104.8493 174° South  Level Estimated

Login

Don't have an account? Register now (free) for customized features, flight alerts, and more!